Time;durP1;ratioP1;P1;durP2;ratioP2;P2;SDS_P1;SDS_P2;PMS_P1;PMS_P2;Temp;Humidity;BMP_temperature;BMP_pressure;BME280_temperature;BME280_humidity;BME280_pressure;Samples;Min_cycle;Max_cycle;Signal;HPM_P1;HPM_P2
2022/05/30 00:00:57;;;;;;;1.33;0.65;;;20.30;66.50;;;;;;5146607;27;47395;-68
2022/05/30 00:03:23;;;;;;;2.38;0.50;;;20.30;66.60;;;;;;5146165;27;45186;-68
2022/05/30 00:05:53;;;;;;;1.75;0.70;;;20.30;67.40;;;;;;5149179;27;45244;-68
2022/05/30 00:08:20;;;;;;;1.60;0.60;;;20.30;66.40;;;;;;5144430;27;45482;-67
2022/05/30 00:10:47;;;;;;;0.80;0.43;;;20.30;66.80;;;;;;5145741;27;45261;-67
2022/05/30 00:13:14;;;;;;;1.73;0.70;;;20.30;66.60;;;;;;5145635;27;45652;-67
2022/05/30 00:15:41;;;;;;;1.23;0.57;;;20.20;66.30;;;;;;5147431;27;45345;-67
2022/05/30 00:18:09;;;;;;;1.63;0.70;;;20.30;66.30;;;;;;5148643;27;45321;-67
2022/05/30 00:20:36;;;;;;;0.85;0.55;;;20.30;66.30;;;;;;5150208;27;47087;-67
2022/05/30 00:23:06;;;;;;;2.25;0.50;;;20.30;66.60;;;;;;5152483;27;45533;-67
2022/05/30 00:25:33;;;;;;;1.48;0.63;;;20.20;66.30;;;;;;5129746;27;45304;-68
2022/05/30 00:27:59;;;;;;;0.75;0.40;;;20.30;66.20;;;;;;5130667;27;45510;-67
2022/05/30 00:30:26;;;;;;;0.77;0.40;;;20.20;66.40;;;;;;5129740;27;48112;-67
2022/05/30 00:32:53;;;;;;;1.15;0.57;;;20.30;66.10;;;;;;5131792;27;45241;-67
2022/05/30 00:35:20;;;;;;;1.13;0.50;;;20.30;66.00;;;;;;5131662;27;45475;-67
2022/05/30 00:37:47;;;;;;;0.90;0.50;;;20.30;66.20;;;;;;5148461;27;45216;-67
2022/05/30 00:40:15;;;;;;;0.85;0.45;;;20.30;66.40;;;;;;5136521;27;45229;-67
2022/05/30 00:42:42;;;;;;;1.17;0.52;;;20.30;66.60;;;;;;5131977;27;45237;-68
2022/05/30 00:45:10;;;;;;;2.28;0.50;;;20.30;66.70;;;;;;5132843;27;45403;-67
2022/05/30 00:47:38;;;;;;;1.55;0.50;;;20.30;66.00;;;;;;5151720;27;45285;-68
2022/05/30 00:50:06;;;;;;;1.33;0.80;;;20.30;66.10;;;;;;5137791;27;46526;-67
2022/05/30 00:52:35;;;;;;;1.58;0.60;;;20.30;66.10;;;;;;5137602;27;45192;-68
2022/05/30 00:55:07;;;;;;;1.52;0.68;;;20.30;66.10;;;;;;5149808;27;45232;-68
2022/05/30 00:57:38;;;;;;;4.05;0.70;;;20.30;66.20;;;;;;5139813;27;45644;-67
2022/05/30 01:00:10;;;;;;;1.17;0.55;;;20.30;66.20;;;;;;5130031;27;46448;-68
2022/05/30 01:02:40;;;;;;;1.77;0.68;;;20.30;66.10;;;;;;5131071;27;45288;-67
2022/05/30 01:07:53;;;;;;;1.13;0.50;;;20.30;66.30;;;;;;5135559;27;45579;-67
2022/05/30 01:10:23;;;;;;;1.40;0.52;;;20.30;66.40;;;;;;5130176;27;45261;-67
2022/05/30 01:12:53;;;;;;;1.20;0.60;;;20.30;66.20;;;;;;5145084;27;45199;-67
2022/05/30 01:15:22;;;;;;;2.17;0.68;;;20.20;67.00;;;;;;5143160;27;45621;-68
2022/05/30 01:17:55;;;;;;;1.05;0.50;;;20.20;66.30;;;;;;5129651;27;45518;-68
2022/05/30 01:20:31;;;;;;;1.42;0.65;;;20.20;66.20;;;;;;5138190;27;46979;-67
2022/05/30 01:23:25;;;;;;;1.65;0.70;;;20.20;66.30;;;;;;5132244;27;45235;-67
2022/05/30 01:26:17;;;;;;;1.20;0.60;;;20.20;66.30;;;;;;5135302;27;45287;-68
2022/05/30 01:28:50;;;;;;;1.27;0.60;;;20.30;66.50;;;;;;5142590;27;45511;-68
2022/05/30 01:31:18;;;;;;;0.95;0.50;;;20.20;66.00;;;;;;5151260;27;47425;-68
2022/05/30 01:33:45;;;;;;;3.42;0.60;;;20.30;65.80;;;;;;5146873;27;45396;-68
2022/05/30 01:36:12;;;;;;;1.00;0.50;;;20.30;66.90;;;;;;5130829;27;45188;-68
2022/05/30 01:38:39;;;;;;;1.52;0.60;;;20.30;65.80;;;;;;5145542;27;45175;-67
2022/05/30 01:41:06;;;;;;;1.77;0.52;;;20.30;65.70;;;;;;5151010;27;46392;-68
2022/05/30 01:43:33;;;;;;;0.82;0.52;;;20.30;66.10;;;;;;5150770;27;45374;-68
2022/05/30 01:46:06;;;;;;;0.95;0.60;;;20.30;65.90;;;;;;5151633;27;45230;-68
2022/05/30 01:48:33;;;;;;;1.98;0.60;;;20.30;66.10;;;;;;5148476;27;45139;-68
2022/05/30 01:51:00;;;;;;;2.13;0.93;;;20.30;66.00;;;;;;5139117;27;47089;-68
2022/05/30 01:53:28;;;;;;;2.72;0.68;;;20.30;67.90;;;;;;5144572;27;45243;-67
2022/05/30 01:55:55;;;;;;;1.15;0.50;;;20.30;65.80;;;;;;5149050;27;45271;-68
2022/05/30 01:58:22;;;;;;;1.52;0.50;;;20.30;66.10;;;;;;5149388;27;45145;-68
2022/05/30 02:00:49;;;;;;;2.72;0.70;;;20.30;66.20;;;;;;5150137;27;45296;-68
2022/05/30 02:03:18;;;;;;;1.02;0.73;;;20.30;66.80;;;;;;5136198;27;45631;-67
2022/05/30 02:05:45;;;;;;;1.75;0.63;;;20.30;66.30;;;;;;5129576;27;45208;-68
2022/05/30 02:08:16;;;;;;;1.30;0.70;;;20.30;65.90;;;;;;5135860;27;45367;-68
2022/05/30 02:10:43;;;;;;;1.00;0.50;;;20.20;66.40;;;;;;5130199;27;46368;-67
2022/05/30 02:13:09;;;;;;;3.00;0.57;;;20.20;66.80;;;;;;5128839;27;45147;-68
2022/05/30 02:17:00;;;;;;;1.52;0.60;;;20.20;66.40;;;;;;5127855;27;45663;-68
2022/05/30 02:18:23;;;;;;;1.80;0.63;;;20.30;66.40;;;;;;5148518;27;45416;-67
2022/05/30 02:20:50;;;;;;;1.15;0.70;;;20.30;66.40;;;;;;5148251;27;46566;-68
2022/05/30 02:23:18;;;;;;;0.93;0.50;;;20.20;66.50;;;;;;5142166;27;45426;-68
2022/05/30 02:25:45;;;;;;;1.17;0.65;;;20.20;66.10;;;;;;5128103;27;45268;-68
2022/05/30 02:28:13;;;;;;;2.60;0.80;;;20.20;66.40;;;;;;5128515;27;45208;-68
2022/05/30 02:30:40;;;;;;;3.13;0.50;;;20.20;65.90;;;;;;5128787;27;47200;-67
2022/05/30 02:38:37;;;;;;;1.55;0.50;;;20.30;65.50;;;;;;5127718;27;45242;-68
2022/05/30 02:41:04;;;;;;;1.42;0.55;;;20.30;65.90;;;;;;5129621;27;46491;-68
2022/05/30 02:43:31;;;;;;;2.22;0.73;;;20.30;66.70;;;;;;5129548;27;45262;-68
2022/05/30 02:45:58;;;;;;;3.00;0.70;;;20.30;65.90;;;;;;5129557;27;45230;-68
2022/05/30 02:48:25;;;;;;;1.45;0.80;;;20.30;65.40;;;;;;5142959;27;45485;-67
2022/05/30 02:50:56;;;;;;;1.42;0.60;;;20.30;65.50;;;;;;5129991;27;46416;-68
2022/05/30 02:53:23;;;;;;;1.83;0.60;;;20.30;65.70;;;;;;5128630;27;45198;-68
2022/05/30 02:55:50;;;;;;;2.25;0.68;;;20.30;65.60;;;;;;5147867;27;45462;-68
2022/05/30 02:58:16;;;;;;;1.45;0.60;;;20.20;65.80;;;;;;5147510;27;45318;-68
2022/05/30 03:00:43;;;;;;;2.10;0.52;;;20.20;65.90;;;;;;5149337;27;46593;-68
2022/05/30 03:03:10;;;;;;;2.13;0.50;;;20.30;65.60;;;;;;5150071;27;45278;-68
2022/05/30 03:05:38;;;;;;;2.17;0.75;;;20.30;65.60;;;;;;5136201;27;45223;-68
2022/05/30 03:08:08;;;;;;;1.10;0.60;;;20.20;65.80;;;;;;5150095;27;45472;-67
2022/05/30 03:10:35;;;;;;;0.77;0.47;;;20.20;65.60;;;;;;5149142;27;47506;-68
2022/05/30 03:13:02;;;;;;;2.78;0.80;;;20.20;65.50;;;;;;5149390;27;45541;-68
2022/05/30 03:15:29;;;;;;;4.03;0.80;;;20.20;65.70;;;;;;5128106;27;45270;-68
2022/05/30 03:17:56;;;;;;;2.53;0.98;;;20.20;66.10;;;;;;5144694;27;45459;-68
2022/05/30 03:20:23;;;;;;;0.90;0.45;;;20.20;65.70;;;;;;5143606;27;47686;-68
2022/05/30 03:22:50;;;;;;;2.03;0.50;;;20.20;65.60;;;;;;5131780;27;45478;-68
2022/05/30 03:25:19;;;;;;;1.38;0.50;;;20.20;65.60;;;;;;5149876;27;45408;-68
2022/05/30 03:27:46;;;;;;;2.00;0.68;;;20.20;65.40;;;;;;5146777;27;45208;-68
2022/05/30 03:30:14;;;;;;;0.77;0.50;;;20.30;65.60;;;;;;5148862;27;45846;-68
2022/05/30 03:32:43;;;;;;;0.88;0.60;;;20.20;65.20;;;;;;5149103;27;45228;-68
2022/05/30 03:35:11;;;;;;;2.53;0.75;;;20.20;65.00;;;;;;5149358;27;45199;-67
2022/05/30 03:37:40;;;;;;;1.83;0.68;;;20.20;65.30;;;;;;5148673;27;45439;-68
2022/05/30 03:40:10;;;;;;;2.70;0.95;;;20.30;65.40;;;;;;5148832;27;45973;-68
2022/05/30 03:42:38;;;;;;;2.53;0.65;;;20.20;65.60;;;;;;5149644;27;45374;-68
2022/05/30 03:45:06;;;;;;;2.13;0.70;;;20.20;65.30;;;;;;5149548;27;45228;-67
2022/05/30 03:47:37;;;;;;;2.22;0.77;;;20.20;65.30;;;;;;5135553;27;45213;-68
2022/05/30 03:50:05;;;;;;;1.75;0.80;;;20.30;65.30;;;;;;5127985;27;46116;-68
2022/05/30 03:52:31;;;;;;;1.75;0.75;;;20.30;65.40;;;;;;5127292;27;45235;-68
2022/05/30 03:54:58;;;;;;;2.13;0.65;;;20.20;65.40;;;;;;5140194;27;45541;-67
2022/05/30 03:57:25;;;;;;;1.35;0.57;;;20.20;65.30;;;;;;5147954;27;45218;-68
2022/05/30 03:59:53;;;;;;;2.90;0.85;;;20.30;65.60;;;;;;5146194;27;48154;-68
2022/05/30 04:02:20;;;;;;;0.60;0.40;;;20.20;65.50;;;;;;5148909;27;45181;-68
2022/05/30 04:04:47;;;;;;;0.70;0.50;;;20.20;65.60;;;;;;5148045;27;45127;-68
2022/05/30 04:07:14;;;;;;;1.65;0.60;;;20.20;65.50;;;;;;5146186;27;45506;-68
2022/05/30 04:09:40;;;;;;;1.80;0.60;;;20.20;65.50;;;;;;5148312;27;47593;-68
2022/05/30 04:12:08;;;;;;;1.20;0.60;;;20.20;65.50;;;;;;5147736;27;45185;-68
2022/05/30 04:14:35;;;;;;;1.92;0.60;;;20.20;66.00;;;;;;5148495;27;45243;-68
2022/05/30 04:17:03;;;;;;;2.88;0.65;;;20.20;65.60;;;;;;5323487;22;45932;-65
2022/05/30 04:19:31;;;;;;;2.97;0.57;;;20.20;65.60;;;;;;5087248;28;46619;-66
2022/05/30 04:21:57;;;;;;;1.77;0.70;;;20.20;65.70;;;;;;5087816;28;44608;-66
2022/05/30 04:24:25;;;;;;;1.08;0.57;;;20.20;65.50;;;;;;5079654;28;44847;-66
2022/05/30 04:26:51;;;;;;;1.70;0.80;;;20.20;65.60;;;;;;5089600;28;45175;-66
2022/05/30 04:29:18;;;;;;;1.95;0.70;;;20.20;65.40;;;;;;5070065;28;46627;-66
2022/05/30 04:31:45;;;;;;;1.33;0.60;;;20.20;65.40;;;;;;5076863;28;44623;-66
2022/05/30 04:34:13;;;;;;;1.00;0.60;;;20.20;65.60;;;;;;5093216;28;44597;-66
2022/05/30 04:36:40;;;;;;;0.95;0.60;;;20.30;66.40;;;;;;5092172;28;44755;-66
2022/05/30 04:39:06;;;;;;;2.13;0.80;;;20.20;65.40;;;;;;5091869;28;46431;-66
2022/05/30 04:41:33;;;;;;;2.25;0.80;;;20.20;65.20;;;;;;5093094;28;44645;-66
2022/05/30 04:44:01;;;;;;;5.05;0.80;;;20.30;65.30;;;;;;5093271;28;44847;-66
2022/05/30 04:46:28;;;;;;;3.10;0.80;;;20.20;65.60;;;;;;5083039;28;44883;-66
2022/05/30 04:48:54;;;;;;;2.92;0.80;;;20.20;65.30;;;;;;5074079;28;46317;-66
2022/05/30 04:51:23;;;;;;;2.35;0.68;;;20.30;65.20;;;;;;5092811;28;44757;-66
2022/05/30 04:53:49;;;;;;;1.10;0.52;;;20.20;65.10;;;;;;5090891;28;44920;-66
2022/05/30 04:56:17;;;;;;;1.70;0.63;;;20.20;65.50;;;;;;5091653;28;44858;-66
2022/05/30 04:58:44;;;;;;;1.85;0.88;;;20.20;65.20;;;;;;5090820;28;46323;-66
2022/05/30 05:01:11;;;;;;;1.38;0.70;;;20.20;65.60;;;;;;5092484;28;45103;-66
2022/05/30 05:03:40;;;;;;;2.25;0.85;;;20.20;65.60;;;;;;5092396;28;45324;-66
2022/05/30 05:06:09;;;;;;;2.83;0.93;;;20.20;65.50;;;;;;5092036;28;44781;-66
2022/05/30 05:08:48;;;;;;;0.95;0.60;;;20.20;66.10;;;;;;5089529;28;45220;-66
2022/05/30 05:11:19;;;;;;;1.15;0.60;;;20.20;65.90;;;;;;5091728;28;44892;-66
2022/05/30 05:13:46;;;;;;;1.98;0.57;;;20.20;65.60;;;;;;5092192;28;44608;-66
2022/05/30 05:16:14;;;;;;;2.35;0.60;;;20.20;65.60;;;;;;5090440;28;44837;-66
2022/05/30 05:18:41;;;;;;;1.95;0.70;;;20.20;66.10;;;;;;5091416;28;46601;-66
2022/05/30 05:21:09;;;;;;;1.98;0.75;;;20.20;65.60;;;;;;5091023;28;44676;-66
2022/05/30 05:23:35;;;;;;;1.95;0.45;;;20.20;65.00;;;;;;5092539;28;44656;-66
2022/05/30 05:26:08;;;;;;;2.17;0.80;;;20.30;65.30;;;;;;5091336;28;44778;-66
2022/05/30 05:28:35;;;;;;;1.27;0.50;;;20.20;65.20;;;;;;5089732;28;46416;-66
2022/05/30 05:31:02;;;;;;;2.03;0.52;;;20.20;65.40;;;;;;5091742;28;45343;-66
2022/05/30 05:33:29;;;;;;;3.00;0.90;;;20.20;65.10;;;;;;5090641;28;44645;-66
2022/05/30 05:35:56;;;;;;;2.33;0.70;;;20.20;65.10;;;;;;5078225;28;44722;-66
2022/05/30 05:38:23;;;;;;;1.50;0.75;;;20.30;65.50;;;;;;5071070;28;44994;-66
2022/05/30 05:40:50;;;;;;;2.47;0.80;;;20.20;65.20;;;;;;5071061;28;44986;-66
2022/05/30 05:43:19;;;;;;;2.03;0.90;;;20.30;65.30;;;;;;5091757;28;44858;-66
2022/05/30 05:45:46;;;;;;;3.03;1.00;;;20.30;65.20;;;;;;5092154;28;44776;-66
2022/05/30 05:48:14;;;;;;;2.45;1.30;;;20.20;65.10;;;;;;5091158;28;45495;-66
2022/05/30 05:50:43;;;;;;;3.25;0.90;;;20.20;65.20;;;;;;5089800;28;44633;-66
2022/05/30 05:53:11;;;;;;;4.18;0.60;;;20.20;65.40;;;;;;5088233;28;44854;-66
2022/05/30 05:55:38;;;;;;;2.88;0.93;;;20.30;65.30;;;;;;5092884;28;45040;-66
2022/05/30 05:58:06;;;;;;;2.13;0.90;;;20.30;65.30;;;;;;5091510;28;45482;-66
2022/05/30 06:00:35;;;;;;;1.75;0.63;;;20.20;65.20;;;;;;5091028;28;44617;-66
2022/05/30 06:03:02;;;;;;;2.08;0.90;;;20.20;65.50;;;;;;5072837;28;45562;-66
2022/05/30 06:05:30;;;;;;;3.00;0.95;;;20.20;65.40;;;;;;5089021;28;44692;-66
2022/05/30 06:08:00;;;;;;;3.70;1.00;;;20.20;65.30;;;;;;5091000;28;46304;-66
2022/05/30 06:10:27;;;;;;;2.25;0.80;;;20.20;65.60;;;;;;5089095;28;45009;-66
2022/05/30 06:12:54;;;;;;;2.90;1.20;;;20.20;65.60;;;;;;5090336;28;44598;-66
2022/05/30 06:15:22;;;;;;;2.88;0.98;;;20.20;65.40;;;;;;5091497;28;44850;-66
2022/05/30 06:17:50;;;;;;;4.82;1.25;;;20.20;65.70;;;;;;5090152;28;46433;-66
2022/05/30 06:20:19;;;;;;;3.45;1.27;;;20.20;65.20;;;;;;5088195;28;44874;-66
2022/05/30 06:22:46;;;;;;;3.50;1.02;;;20.20;65.90;;;;;;5091195;28;44615;-66
2022/05/30 06:25:14;;;;;;;6.00;1.10;;;20.30;65.20;;;;;;5089243;28;45102;-66
2022/05/30 06:27:41;;;;;;;2.90;1.25;;;20.20;64.90;;;;;;5089303;28;45191;-66
2022/05/30 06:30:09;;;;;;;5.38;1.73;;;20.20;64.80;;;;;;5090424;28;44607;-66
2022/05/30 06:32:38;;;;;;;7.45;1.77;;;20.30;64.90;;;;;;5089802;28;44663;-66
2022/05/30 06:35:07;;;;;;;6.30;1.73;;;20.20;64.60;;;;;;5074302;28;44929;-66
2022/05/30 06:37:34;;;;;;;5.97;1.95;;;20.30;65.10;;;;;;5066761;28;45302;-66
2022/05/30 06:40:03;;;;;;;5.03;1.83;;;20.30;64.80;;;;;;5072919;28;44633;-66
2022/05/30 06:42:30;;;;;;;8.13;2.08;;;20.30;65.20;;;;;;5070930;28;44633;-66
2022/05/30 06:44:58;;;;;;;7.75;2.13;;;20.30;64.70;;;;;;5090602;28;44805;-66
2022/05/30 06:47:25;;;;;;;6.75;2.45;;;20.30;64.60;;;;;;5090430;28;45475;-66
2022/05/30 06:49:52;;;;;;;8.00;2.63;;;20.30;65.10;;;;;;5088648;28;44683;-66
2022/05/30 06:52:20;;;;;;;6.30;2.45;;;20.20;65.70;;;;;;5089899;28;45010;-66
2022/05/30 06:54:47;;;;;;;5.60;2.30;;;20.20;65.60;;;;;;5089412;28;44762;-66
2022/05/30 07:00:02;;;;;;;12.85;3.17;;;20.20;64.80;;;;;;5088900;28;44595;-66
2022/05/30 07:02:29;;;;;;;6.43;2.83;;;20.20;65.10;;;;;;5091037;28;44681;-66
2022/05/30 07:04:56;;;;;;;8.35;2.92;;;20.20;66.10;;;;;;5090838;28;44904;-66
2022/05/30 07:07:25;;;;;;;6.78;2.08;;;20.20;64.70;;;;;;5079382;28;45631;-66
2022/05/30 07:09:52;;;;;;;5.93;2.10;;;20.20;65.10;;;;;;5080503;28;44792;-66
2022/05/30 07:12:19;;;;;;;4.68;1.60;;;20.20;64.90;;;;;;5089631;28;45052;-66
2022/05/30 07:14:46;;;;;;;2.95;1.30;;;20.20;65.00;;;;;;5090717;28;44798;-66
2022/05/30 07:17:13;;;;;;;3.42;1.10;;;20.20;65.00;;;;;;5088720;28;45471;-66
2022/05/30 07:19:41;;;;;;;4.78;1.20;;;20.20;64.60;;;;;;5089418;28;44588;-66
2022/05/30 07:22:10;;;;;;;5.28;1.30;;;20.20;64.90;;;;;;5088130;28;44987;-66
2022/05/30 07:24:39;;;;;;;5.13;1.35;;;20.20;64.40;;;;;;5090730;28;44760;-66
2022/05/30 07:27:06;;;;;;;3.88;1.90;;;20.30;64.60;;;;;;5087449;28;45501;-66
2022/05/30 07:29:34;;;;;;;7.47;1.65;;;20.30;64.80;;;;;;5088547;28;44689;-66
2022/05/30 07:32:03;;;;;;;4.70;1.10;;;20.30;64.50;;;;;;5090110;28;44678;-65
2022/05/30 07:34:32;;;;;;;5.53;1.30;;;20.30;64.60;;;;;;5090527;28;44699;-66
2022/05/30 07:37:01;;;;;;;4.25;1.23;;;20.30;64.30;;;;;;5070433;28;45306;-66
2022/05/30 07:39:28;;;;;;;4.05;1.30;;;20.30;64.50;;;;;;5069459;28;44557;-66
2022/05/30 07:41:57;;;;;;;3.63;1.30;;;20.30;64.40;;;;;;5070161;28;44718;-66
2022/05/30 07:44:24;;;;;;;2.72;1.20;;;20.30;64.30;;;;;;5076148;28;44800;-66
2022/05/30 07:46:51;;;;;;;2.88;1.33;;;20.30;64.80;;;;;;5089162;28;45507;-66
2022/05/30 07:49:18;;;;;;;4.00;1.33;;;20.30;64.50;;;;;;5088854;28;44588;-66
2022/05/30 07:51:46;;;;;;;3.53;1.30;;;20.20;64.30;;;;;;5088640;28;44618;-66
2022/05/30 07:54:13;;;;;;;4.22;1.23;;;20.20;64.70;;;;;;5088890;28;44850;-66
2022/05/30 07:56:40;;;;;;;5.70;1.38;;;20.30;64.70;;;;;;5089786;28;45402;-66
2022/05/30 07:59:09;;;;;;;2.78;1.10;;;20.20;64.60;;;;;;5091303;28;44627;-66
2022/05/30 08:01:36;;;;;;;4.10;1.20;;;20.20;65.10;;;;;;5095761;28;44684;-66
2022/05/30 08:04:03;;;;;;;5.10;1.48;;;20.20;64.60;;;;;;5083840;28;44857;-66
2022/05/30 08:06:31;;;;;;;3.40;1.13;;;20.30;64.60;;;;;;5080354;28;45479;-66
2022/05/30 08:08:58;;;;;;;4.53;1.23;;;20.30;64.90;;;;;;5072194;28;44580;-66
2022/05/30 08:11:25;;;;;;;3.30;1.00;;;20.20;64.60;;;;;;5072993;28;44742;-66
2022/05/30 08:13:52;;;;;;;3.10;1.30;;;20.20;65.20;;;;;;5073204;28;44751;-66
2022/05/30 08:16:22;;;;;;;4.97;1.30;;;20.20;64.10;;;;;;5083336;28;46455;-66
2022/05/30 08:18:49;;;;;;;6.05;1.25;;;20.20;64.00;;;;;;5092915;28;44806;-66
2022/05/30 08:21:16;;;;;;;5.63;1.30;;;20.30;64.10;;;;;;5091992;28;44921;-66
2022/05/30 08:23:43;;;;;;;3.15;1.30;;;20.30;64.00;;;;;;5093501;28;44672;-66
2022/05/30 08:26:10;;;;;;;3.30;1.20;;;20.30;64.50;;;;;;5090058;28;45360;-66
2022/05/30 08:28:37;;;;;;;1.90;1.00;;;20.30;64.10;;;;;;5091083;28;44821;-66
2022/05/30 08:31:04;;;;;;;2.83;1.30;;;20.30;64.00;;;;;;5093519;28;44812;-66
2022/05/30 08:33:32;;;;;;;6.53;1.40;;;20.30;63.80;;;;;;5091864;28;44816;-66
2022/05/30 08:36:01;;;;;;;4.03;1.35;;;20.30;63.80;;;;;;5091722;28;45916;-66
2022/05/30 08:38:33;;;;;;;4.03;1.17;;;20.30;63.90;;;;;;5091710;28;44654;-66
2022/05/30 08:43:49;;;;;;;2.72;1.00;;;20.30;64.10;;;;;;5090422;28;44581;-66
2022/05/30 08:46:33;;;;;;;3.72;1.40;;;20.30;64.30;;;;;;5091402;28;45448;-66
2022/05/30 08:49:13;;;;;;;4.45;1.35;;;20.30;64.20;;;;;;5090458;28;45173;-66
2022/05/30 08:52:19;;;;;;;2.90;1.27;;;20.30;64.20;;;;;;5092969;28;44715;-66
2022/05/30 08:54:59;;;;;;;3.80;1.38;;;20.20;64.30;;;;;;4988609;28;45000;-66
2022/05/30 08:57:35;;;;;;;3.83;1.10;;;20.30;64.20;;;;;;5078384;28;46232;-66
2022/05/30 09:00:09;;;;;;;3.63;0.93;;;20.30;64.40;;;;;;5091301;28;44750;-66
2022/05/30 09:02:42;;;;;;;5.13;1.25;;;20.30;64.30;;;;;;5091359;28;44592;-66
2022/05/30 09:05:15;;;;;;;3.13;0.93;;;20.20;64.40;;;;;;5092443;28;44735;-66
2022/05/30 09:07:47;;;;;;;3.78;0.98;;;20.20;64.30;;;;;;5090817;28;45375;-66
2022/05/30 09:10:21;;;;;;;3.15;1.10;;;20.20;64.40;;;;;;5089798;28;44828;-66
2022/05/30 09:12:51;;;;;;;1.50;0.80;;;20.30;64.10;;;;;;5085838;28;45144;-66
2022/05/30 09:15:21;;;;;;;3.88;1.00;;;20.30;63.80;;;;;;5092694;28;44617;-66
2022/05/30 09:17:53;;;;;;;1.85;0.77;;;20.30;63.80;;;;;;5090348;28;46902;-66
2022/05/30 09:20:23;;;;;;;0.98;0.55;;;20.30;63.90;;;;;;5084355;28;44774;-66
2022/05/30 09:22:50;;;;;;;1.65;0.70;;;20.30;63.30;;;;;;5079188;28;44937;-66
2022/05/30 09:28:05;;;;;;;1.58;0.52;;;20.30;63.30;;;;;;5081450;28;44966;-66
2022/05/30 09:30:41;;;;;;;2.35;0.50;;;20.30;63.30;;;;;;5091510;28;44745;-66
2022/05/30 09:33:14;;;;;;;2.92;0.90;;;20.30;63.10;;;;;;5092304;28;44692;-66
2022/05/30 09:35:43;;;;;;;3.80;1.05;;;20.30;63.10;;;;;;5090247;28;44579;-66
2022/05/30 09:38:18;;;;;;;2.15;0.90;;;20.30;63.60;;;;;;5070000;28;45615;-66
2022/05/30 09:40:47;;;;;;;3.15;0.93;;;20.30;63.40;;;;;;5078611;28;44699;-66
2022/05/30 09:43:24;;;;;;;2.50;1.00;;;20.30;63.20;;;;;;5091918;28;44786;-65
2022/05/30 09:45:51;;;;;;;2.13;0.90;;;20.30;63.50;;;;;;5082289;28;44703;-65
2022/05/30 09:48:19;;;;;;;2.00;0.80;;;20.30;63.90;;;;;;5070322;28;45640;-66
2022/05/30 09:50:50;;;;;;;2.00;0.70;;;20.20;64.10;;;;;;5089330;28;44674;-65
2022/05/30 09:53:41;;;;;;;3.35;0.90;;;20.30;63.90;;;;;;5090585;28;44585;-65
2022/05/30 09:56:10;;;;;;;3.43;0.90;;;20.20;63.80;;;;;;5087195;28;44660;-65
2022/05/30 09:58:45;;;;;;;3.57;0.80;;;20.30;65.20;;;;;;5089010;28;46595;-65
2022/05/30 10:01:12;;;;;;;2.07;0.80;;;20.20;63.90;;;;;;5089356;28;44753;-65
2022/05/30 10:03:42;;;;;;;2.60;0.70;;;20.20;63.60;;;;;;5081322;28;44803;-65
2022/05/30 10:06:15;;;;;;;2.88;1.00;;;20.20;63.60;;;;;;5080422;28;44859;-65
2022/05/30 10:08:43;;;;;;;3.03;0.77;;;20.20;63.70;;;;;;5088237;28;45578;-65
2022/05/30 10:11:11;;;;;;;2.10;0.70;;;20.30;64.60;;;;;;5090517;28;44609;-65
2022/05/30 10:13:39;;;;;;;3.45;0.77;;;20.30;63.90;;;;;;5074004;28;44579;-65
2022/05/30 10:16:08;;;;;;;3.13;0.70;;;20.30;63.10;;;;;;5091240;28;44747;-66
2022/05/30 10:18:37;;;;;;;2.28;0.60;;;20.30;62.60;;;;;;5090515;28;45579;-65
2022/05/30 10:21:25;;;;;;;2.53;0.88;;;20.30;62.50;;;;;;5087408;28;47815;-65
2022/05/30 10:29:59;;;;;;;4.10;0.70;;;20.30;62.60;;;;;;5066971;28;45042;-66
2022/05/30 10:32:32;;;;;;;1.98;0.60;;;20.40;62.80;;;;;;5091440;28;44651;-66
2022/05/30 10:35:13;;;;;;;2.03;0.77;;;20.40;62.70;;;;;;5091123;28;45096;-65
2022/05/30 10:38:03;;;;;;;4.75;0.90;;;20.40;62.70;;;;;;5087908;28;45192;-66
2022/05/30 10:40:46;;;;;;;2.47;0.55;;;20.40;62.80;;;;;;5090147;28;47125;-65
2022/05/30 10:43:19;;;;;;;2.63;0.82;;;20.40;63.00;;;;;;5070693;28;44871;-65
2022/05/30 10:45:50;;;;;;;3.25;0.85;;;20.30;63.10;;;;;;5070910;28;44577;-65
2022/05/30 10:48:26;;;;;;;1.80;0.65;;;20.30;62.90;;;;;;5076778;28;44720;-65
2022/05/30 10:50:58;;;;;;;2.95;0.88;;;20.30;62.90;;;;;;5089837;28;45148;-65
2022/05/30 10:53:43;;;;;;;3.63;0.80;;;20.30;62.90;;;;;;5090806;28;44621;-65
2022/05/30 10:56:17;;;;;;;2.45;0.80;;;20.30;63.00;;;;;;5088567;28;44662;-65
2022/05/30 10:58:50;;;;;;;1.30;0.75;;;20.30;63.00;;;;;;5088977;28;45096;-65
2022/05/30 11:01:31;;;;;;;3.80;0.80;;;20.30;63.00;;;;;;5090292;28;46332;-66
2022/05/30 11:04:11;;;;;;;3.17;0.90;;;20.30;63.00;;;;;;5089508;28;44601;-65
2022/05/30 11:06:43;;;;;;;2.00;0.68;;;20.30;63.00;;;;;;5088867;28;44656;-65
2022/05/30 11:09:19;;;;;;;2.58;0.73;;;20.30;62.80;;;;;;5088122;28;44651;-66
2022/05/30 11:11:54;;;;;;;3.42;1.05;;;20.30;62.50;;;;;;5083387;28;46618;-65
2022/05/30 11:14:32;;;;;;;3.90;0.80;;;20.30;62.30;;;;;;5070375;28;44560;-66
2022/05/30 11:17:06;;;;;;;3.17;0.80;;;20.30;62.40;;;;;;5073302;28;44697;-66
2022/05/30 11:19:43;;;;;;;4.20;0.80;;;20.30;62.40;;;;;;5089870;28;44788;-66
2022/05/30 11:22:15;;;;;;;2.65;0.70;;;20.30;62.50;;;;;;5089866;28;45481;-66
2022/05/30 11:24:49;;;;;;;2.85;0.90;;;20.30;62.50;;;;;;5086974;28;44716;-66
2022/05/30 11:27:33;;;;;;;3.45;0.65;;;20.30;62.30;;;;;;5088018;28;44986;-66
2022/05/30 11:30:19;;;;;;;2.92;1.00;;;20.30;62.30;;;;;;5090120;28;44679;-65
2022/05/30 11:33:19;;;;;;;2.10;0.70;;;20.30;62.40;;;;;;5089405;28;45004;-66
2022/05/30 11:35:56;;;;;;;2.95;0.60;;;20.40;62.20;;;;;;5083461;28;44944;-65
2022/05/30 11:38:54;;;;;;;3.13;0.65;;;20.30;62.30;;;;;;5093092;28;45063;-66
2022/05/30 11:41:36;;;;;;;2.42;0.68;;;20.30;62.60;;;;;;5093435;28;45016;-65
2022/05/30 11:44:34;;;;;;;1.75;0.63;;;20.30;62.90;;;;;;5093781;28;46586;-66
2022/05/30 11:47:13;;;;;;;3.42;0.70;;;20.30;62.80;;;;;;5092208;28;44552;-65
2022/05/30 11:49:48;;;;;;;1.98;0.70;;;20.30;62.80;;;;;;5092137;28;44810;-66
2022/05/30 11:52:25;;;;;;;2.53;0.60;;;20.30;62.80;;;;;;5092816;28;44673;-65
2022/05/30 11:55:00;;;;;;;2.22;0.63;;;20.30;62.60;;;;;;5092333;28;46305;-66
2022/05/30 11:57:39;;;;;;;3.67;0.63;;;20.30;62.60;;;;;;5092301;28;44922;-65
2022/05/30 12:00:14;;;;;;;1.35;0.52;;;20.30;62.60;;;;;;5092950;28;44905;-66
2022/05/30 12:02:57;;;;;;;1.65;0.60;;;20.30;62.70;;;;;;5091914;28;44738;-65
2022/05/30 12:05:53;;;;;;;1.65;0.57;;;20.30;62.50;;;;;;5091518;28;46538;-66
2022/05/30 12:08:45;;;;;;;1.05;0.65;;;20.40;62.10;;;;;;5075070;28;44820;-65
2022/05/30 12:11:46;;;;;;;1.83;0.63;;;20.30;61.80;;;;;;5072681;28;44759;-65
2022/05/30 12:14:48;;;;;;;1.95;0.63;;;20.40;61.70;;;;;;5073644;28;44745;-65
2022/05/30 12:17:33;;;;;;;2.03;0.70;;;20.40;62.00;;;;;;5042667;28;46757;-65
2022/05/30 12:25:51;;;;;;;1.73;0.63;;;20.40;61.20;;;;;;5087563;28;44654;-65
2022/05/30 12:28:54;;;;;;;2.38;0.75;;;20.40;61.40;;;;;;5089646;28;47075;-65
2022/05/30 12:31:36;;;;;;;2.15;0.80;;;20.40;61.00;;;;;;5090239;28;44605;-65
2022/05/30 12:34:06;;;;;;;2.00;0.63;;;20.40;61.20;;;;;;5093132;28;44675;-65
2022/05/30 12:36:39;;;;;;;3.33;0.70;;;20.40;61.50;;;;;;5090950;28;44770;-66
2022/05/30 12:39:33;;;;;;;1.95;0.60;;;20.40;61.60;;;;;;5091923;28;46311;-66
2022/05/30 12:42:03;;;;;;;1.20;0.50;;;20.40;61.80;;;;;;5075843;28;44557;-65
2022/05/30 12:44:50;;;;;;;2.30;0.68;;;20.40;61.70;;;;;;5071871;28;44712;-65
2022/05/30 12:47:26;;;;;;;3.08;0.70;;;20.40;61.90;;;;;;5089696;28;44659;-65
2022/05/30 12:50:16;;;;;;;4.13;0.60;;;20.40;61.80;;;;;;5086258;28;46588;-66
2022/05/30 12:52:54;;;;;;;1.08;0.55;;;20.40;61.70;;;;;;5092806;28;44612;-66
2022/05/30 12:55:34;;;;;;;1.70;0.70;;;20.40;61.80;;;;;;5087746;28;44694;-66
2022/05/30 12:58:02;;;;;;;0.60;0.45;;;20.30;61.80;;;;;;5092104;28;44656;-65
2022/05/30 13:01:08;;;;;;;1.10;0.40;;;20.30;61.80;;;;;;5091235;28;46366;-66
2022/05/30 13:03:44;;;;;;;2.85;0.77;;;20.40;61.70;;;;;;5091048;28;44687;-66
2022/05/30 13:06:20;;;;;;;1.52;0.40;;;20.40;61.50;;;;;;5091503;28;44631;-65
2022/05/30 13:09:16;;;;;;;1.95;0.50;;;20.40;61.10;;;;;;5075839;28;44784;-66
2022/05/30 13:12:17;;;;;;;0.63;0.50;;;20.40;61.10;;;;;;5083694;28;45494;-66
2022/05/30 13:15:12;;;;;;;2.05;0.70;;;20.40;61.00;;;;;;5092337;28;45178;-66
2022/05/30 13:17:48;;;;;;;1.42;0.50;;;20.40;60.80;;;;;;5088072;28;45167;-66
2022/05/30 13:20:18;;;;;;;1.70;0.60;;;20.40;60.70;;;;;;5083989;28;44992;-66
2022/05/30 13:22:48;;;;;;;3.38;0.77;;;20.40;60.90;;;;;;5072021;28;45318;-66
2022/05/30 13:25:20;;;;;;;1.33;0.52;;;20.40;60.80;;;;;;5070372;28;44920;-66
2022/05/30 13:27:48;;;;;;;0.98;0.52;;;20.40;60.80;;;;;;5081402;28;44664;-66
2022/05/30 13:30:17;;;;;;;1.83;0.40;;;20.40;60.80;;;;;;5071248;28;44796;-66
2022/05/30 13:32:44;;;;;;;2.13;0.50;;;20.40;60.60;;;;;;5072081;28;46573;-66
2022/05/30 13:35:13;;;;;;;0.90;0.40;;;20.40;61.00;;;;;;5071783;28;44538;-66
2022/05/30 13:37:48;;;;;;;1.40;0.40;;;20.40;61.20;;;;;;5088199;28;45254;-66